createdAt,value
2023-02-24T00:01:51.636Z,6.80
2023-02-24T00:04:21.896Z,6.70
2023-02-24T00:06:50.142Z,6.70
2023-02-24T00:09:20.619Z,6.70
2023-02-24T00:11:55.305Z,6.80
2023-02-24T00:14:25.756Z,6.80
2023-02-24T00:16:54.135Z,6.70
2023-02-24T00:19:24.878Z,6.70
2023-02-24T00:21:54.338Z,6.70
2023-02-24T00:24:23.202Z,6.60
2023-02-24T00:26:57.471Z,6.60
2023-02-24T00:29:26.784Z,6.60
2023-02-24T00:31:59.245Z,6.60
2023-02-24T00:34:27.677Z,6.70
2023-02-24T00:36:58.060Z,6.70
2023-02-24T00:39:30.677Z,6.70
2023-02-24T00:42:05.986Z,6.70
2023-02-24T00:44:35.902Z,6.70
2023-02-24T00:47:06.808Z,6.70
2023-02-24T00:49:38.452Z,6.70
2023-02-24T00:52:08.530Z,6.70
2023-02-24T00:54:37.621Z,6.70
2023-02-24T00:57:08.247Z,6.70
2023-02-24T00:59:37.739Z,6.70
2023-02-24T01:02:07.400Z,6.70
2023-02-24T01:04:37.621Z,6.70
2023-02-24T01:07:10.878Z,6.70
2023-02-24T01:09:42.627Z,6.60
2023-02-24T01:12:39.153Z,6.60
2023-02-24T01:15:09.959Z,6.60
2023-02-24T01:17:41.532Z,6.60
2023-02-24T01:20:17.937Z,6.60
2023-02-24T01:22:48.281Z,6.50
2023-02-24T01:25:18.958Z,6.50
2023-02-24T01:27:49.303Z,6.50
2023-02-24T01:30:18.481Z,6.60
2023-02-24T01:32:48.656Z,6.60
2023-02-24T01:35:17.666Z,6.60
2023-02-24T01:37:46.276Z,6.60
2023-02-24T01:40:20.894Z,6.60
2023-02-24T01:42:52.044Z,6.60
2023-02-24T01:45:25.780Z,6.60
2023-02-24T01:47:58.629Z,6.60
2023-02-24T01:50:27.948Z,6.60
2023-02-24T01:53:00.530Z,6.60
2023-02-24T01:55:32.942Z,6.60
2023-02-24T01:58:07.645Z,6.60
2023-02-24T02:00:44.869Z,6.60
2023-02-24T02:03:24.569Z,6.60
2023-02-24T02:05:56.061Z,6.60
2023-02-24T02:08:25.489Z,6.70
2023-02-24T02:10:58.796Z,6.60
2023-02-24T02:13:31.426Z,6.70
2023-02-24T02:16:43.253Z,6.60
2023-02-24T02:19:37.457Z,6.60
2023-02-24T02:22:36.324Z,6.60
2023-02-24T02:25:12.423Z,6.60
2023-02-24T02:28:13.045Z,6.60
2023-02-24T02:31:15.587Z,6.60
2023-02-24T02:34:05.409Z,6.60
2023-02-24T02:36:43.247Z,6.60
2023-02-24T02:39:17.065Z,6.60
2023-02-24T02:41:54.095Z,6.60
2023-02-24T02:44:27.803Z,6.60
2023-02-24T02:47:03.085Z,6.60
2023-02-24T02:49:37.156Z,6.60
2023-02-24T02:52:13.743Z,6.70
2023-02-24T02:54:45.438Z,6.60
2023-02-24T02:57:21.195Z,6.70
2023-02-24T02:59:55.167Z,6.70
2023-02-24T03:02:29.656Z,6.70
2023-02-24T03:05:04.888Z,6.70
2023-02-24T03:07:40.423Z,6.70
2023-02-24T03:10:17.684Z,6.70
2023-02-24T03:12:48.982Z,6.70
2023-02-24T03:15:20.953Z,6.60
2023-02-24T03:17:56.307Z,6.60
2023-02-24T03:20:32.719Z,6.70
2023-02-24T03:23:05.088Z,6.70
2023-02-24T03:25:39.561Z,6.70
2023-02-24T03:28:17.249Z,6.70
2023-02-24T03:30:50.529Z,6.70
2023-02-24T03:33:26.381Z,6.70
2023-02-24T03:36:01.666Z,6.70
2023-02-24T03:38:33.405Z,6.70
2023-02-24T03:41:02.641Z,6.70
2023-02-24T03:43:36.454Z,6.70
2023-02-24T03:46:06.729Z,6.80
2023-02-24T03:48:39.380Z,6.70
2023-02-24T03:51:11.021Z,6.70
2023-02-24T03:53:57.483Z,6.80
2023-02-24T03:56:38.814Z,6.70
2023-02-24T03:59:15.724Z,6.70
2023-02-24T04:01:51.952Z,6.80
2023-02-24T04:04:30.467Z,6.80
2023-02-24T04:07:18.530Z,6.80
2023-02-24T04:09:57.160Z,6.80
2023-02-24T04:12:30.585Z,6.80
2023-02-24T04:15:09.943Z,6.80
2023-02-24T04:17:42.880Z,6.80
2023-02-24T04:20:16.415Z,6.90
2023-02-24T04:22:59.455Z,6.90
2023-02-24T04:25:29.068Z,6.90
2023-02-24T04:28:03.072Z,6.80
2023-02-24T04:30:36.559Z,6.90
2023-02-24T04:33:06.067Z,6.80
2023-02-24T04:35:35.131Z,6.80
2023-02-24T04:38:05.554Z,6.90
2023-02-24T04:40:33.639Z,6.90
2023-02-24T04:43:03.025Z,6.90
2023-02-24T04:45:32.382Z,6.80
2023-02-24T04:48:02.833Z,6.80
2023-02-24T04:50:34.317Z,6.80
2023-02-24T04:53:07.349Z,6.80
2023-02-24T04:55:40.453Z,6.70
2023-02-24T04:58:11.074Z,6.80
2023-02-24T05:00:42.262Z,6.70
2023-02-24T05:03:12.635Z,6.80
2023-02-24T05:05:43.157Z,6.70
2023-02-24T05:08:15.834Z,6.70
2023-02-24T05:10:46.715Z,6.70
2023-02-24T05:13:17.891Z,6.70
2023-02-24T05:15:48.364Z,6.70
2023-02-24T05:18:18.526Z,6.70
2023-02-24T05:21:06.350Z,6.70
2023-02-24T05:23:40.231Z,6.60
2023-02-24T05:26:10.322Z,6.60
2023-02-24T05:28:41.070Z,6.60
2023-02-24T05:31:11.612Z,6.60
2023-02-24T05:33:41.331Z,6.70
2023-02-24T05:36:12.146Z,6.70
2023-02-24T05:38:43.957Z,6.60
2023-02-24T05:41:17.117Z,6.70
2023-02-24T05:43:48.077Z,6.70
2023-02-24T05:46:18.041Z,6.70
2023-02-24T05:48:51.535Z,6.70
2023-02-24T05:51:20.297Z,6.70
2023-02-24T05:53:49.890Z,6.70
2023-02-24T05:56:20.004Z,6.80
2023-02-24T05:58:47.976Z,6.80
2023-02-24T06:01:19.350Z,6.70
2023-02-24T06:03:48.536Z,6.70
2023-02-24T06:06:17.972Z,6.70
2023-02-24T06:08:50.355Z,6.70
2023-02-24T06:11:21.610Z,6.70
2023-02-24T06:13:49.853Z,6.70
2023-02-24T06:16:19.518Z,6.70
2023-02-24T06:18:50.386Z,6.70
2023-02-24T06:21:18.730Z,6.60
2023-02-24T06:23:47.759Z,6.60
2023-02-24T06:26:19.749Z,6.60
2023-02-24T06:28:49.923Z,6.60
2023-02-24T06:31:18.457Z,6.60
2023-02-24T06:33:46.527Z,6.70
2023-02-24T06:36:15.949Z,6.70
2023-02-24T06:38:44.874Z,6.70
2023-02-24T06:41:14.476Z,6.70
2023-02-24T06:43:44.537Z,6.70
2023-02-24T06:46:15.930Z,6.70
2023-02-24T06:48:44.183Z,6.70
2023-02-24T06:51:33.656Z,6.80
2023-02-24T06:54:04.605Z,6.80
2023-02-24T06:56:38.361Z,6.90
2023-02-24T06:59:13.214Z,6.90
2023-02-24T07:01:47.163Z,6.90
2023-02-24T07:04:21.502Z,6.90
2023-02-24T07:06:52.473Z,6.90
2023-02-24T07:09:24.175Z,6.80
2023-02-24T07:11:53.659Z,6.80
2023-02-24T07:14:22.884Z,6.80
2023-02-24T07:16:54.640Z,6.90
2023-02-24T07:19:25.641Z,6.90
2023-02-24T07:22:00.138Z,6.90
2023-02-24T07:24:35.842Z,6.90
2023-02-24T07:27:06.594Z,6.90
2023-02-24T07:29:37.594Z,6.90
2023-02-24T07:32:10.619Z,6.90
2023-02-24T07:34:40.221Z,6.90
2023-02-24T07:37:10.091Z,6.90
2023-02-24T07:39:39.581Z,6.90
2023-02-24T07:42:10.091Z,7.00
2023-02-24T07:44:46.701Z,7.10
2023-02-24T07:47:16.773Z,7.10
2023-02-24T07:49:45.674Z,7.20
2023-02-24T07:52:14.231Z,7.10
2023-02-24T07:54:43.248Z,7.20
2023-02-24T07:57:13.691Z,7.20
2023-02-24T07:59:47.187Z,7.20
2023-02-24T08:02:18.507Z,7.20
2023-02-24T08:04:50.418Z,7.30
2023-02-24T08:07:24.265Z,7.30
2023-02-24T08:10:14.430Z,7.40
2023-02-24T08:12:47.589Z,7.40
2023-02-24T08:15:24.231Z,7.50
2023-02-24T08:17:59.423Z,7.50
2023-02-24T08:20:29.998Z,7.50
2023-02-24T08:22:58.633Z,7.50
2023-02-24T08:25:35.436Z,7.50
2023-02-24T08:28:09.011Z,7.60
2023-02-24T08:30:39.866Z,7.50
2023-02-24T08:33:11.766Z,7.50
2023-02-24T08:35:45.259Z,7.60
2023-02-24T08:38:15.728Z,7.60
2023-02-24T08:40:54.982Z,7.60
2023-02-24T08:43:32.982Z,7.70
2023-02-24T08:46:04.881Z,7.70
2023-02-24T08:48:39.235Z,7.70
2023-02-24T08:51:11.619Z,7.80
2023-02-24T08:53:41.404Z,7.80
2023-02-24T08:56:12.783Z,7.90
2023-02-24T08:58:47.158Z,7.90
2023-02-24T09:01:24.910Z,8.10
2023-02-24T09:03:56.734Z,8.30
2023-02-24T09:06:35.614Z,8.40
2023-02-24T09:09:19.086Z,8.50
2023-02-24T09:11:48.312Z,8.70
2023-02-24T09:14:27.303Z,8.60
2023-02-24T09:17:06.020Z,8.70
2023-02-24T09:20:02.851Z,8.70
2023-02-24T09:22:32.880Z,8.70
2023-02-24T09:25:23.358Z,8.70
2023-02-24T09:27:55.554Z,8.70
2023-02-24T09:30:37.279Z,8.60
2023-02-24T09:33:17.708Z,8.60
2023-02-24T09:36:03.461Z,8.60
2023-02-24T09:39:07.868Z,8.60
2023-02-24T09:41:52.935Z,8.60
2023-02-24T09:44:27.019Z,8.70
2023-02-24T09:47:00.169Z,8.80
2023-02-24T09:49:40.184Z,8.90
2023-02-24T09:52:18.264Z,8.90
2023-02-24T09:55:10.895Z,8.90
2023-02-24T09:58:10.880Z,9.00
2023-02-24T10:00:44.179Z,9.10
2023-02-24T10:03:20.511Z,9.10
2023-02-24T10:05:58.932Z,9.10
2023-02-24T10:08:35.048Z,9.20
2023-02-24T10:11:08.046Z,9.20
2023-02-24T10:13:44.106Z,9.20
2023-02-24T10:16:22.779Z,9.30
2023-02-24T10:19:01.287Z,9.20
2023-02-24T10:21:48.392Z,9.30
2023-02-24T10:24:29.376Z,9.30
2023-02-24T10:27:08.415Z,9.40
2023-02-24T10:29:48.249Z,9.40
2023-02-24T10:32:24.574Z,9.40
2023-02-24T10:34:53.473Z,9.40
2023-02-24T10:37:28.596Z,9.40
2023-02-24T10:40:00.493Z,9.40
2023-02-24T10:42:31.855Z,9.50
2023-02-24T10:45:18.085Z,9.40
2023-02-24T10:47:56.412Z,9.50
2023-02-24T10:50:32.131Z,9.60
2023-02-24T10:53:26.160Z,9.70
2023-02-24T10:56:15.324Z,9.80
2023-02-24T10:58:56.569Z,9.80
2023-02-24T11:01:41.190Z,9.80
2023-02-24T11:04:23.007Z,9.80
2023-02-24T11:06:55.934Z,9.90
2023-02-24T11:09:35.320Z,9.80
2023-02-24T11:12:40.487Z,9.80
2023-02-24T11:15:36.934Z,9.70
2023-02-24T11:18:06.839Z,9.70
2023-02-24T11:20:48.968Z,9.60
2023-02-24T11:23:21.552Z,9.70
2023-02-24T11:25:52.005Z,9.80
2023-02-24T11:28:39.462Z,9.80
2023-02-24T11:31:25.171Z,9.70
2023-02-24T11:34:06.124Z,9.80
2023-02-24T11:36:43.345Z,9.80
2023-02-24T11:39:37.893Z,9.80
2023-02-24T11:42:12.672Z,9.90
2023-02-24T11:44:52.002Z,10.00
2023-02-24T11:47:27.770Z,10.10
2023-02-24T11:50:05.980Z,10.00
2023-02-24T11:52:40.372Z,10.10
2023-02-24T11:55:24.111Z,10.10
2023-02-24T11:57:55.521Z,10.10
2023-02-24T12:00:29.611Z,10.10
2023-02-24T12:03:04.301Z,10.10
2023-02-24T12:05:36.967Z,10.10
2023-02-24T12:08:13.485Z,10.20
2023-02-24T12:10:47.528Z,10.20
2023-02-24T12:13:22.305Z,10.20
2023-02-24T12:15:57.999Z,10.30
2023-02-24T12:18:30.939Z,10.30
2023-02-24T12:21:05.761Z,10.30
2023-02-24T12:23:35.630Z,10.40
2023-02-24T12:26:17.953Z,10.30
2023-02-24T12:29:18.704Z,10.40
2023-02-24T12:31:57.138Z,10.30
2023-02-24T12:34:37.949Z,10.40
2023-02-24T12:37:23.370Z,10.40
2023-02-24T12:40:04.231Z,10.40
2023-02-24T12:42:42.337Z,10.40
2023-02-24T12:45:18.756Z,10.30
2023-02-24T12:48:00.214Z,10.30
2023-02-24T12:50:38.558Z,10.20
2023-02-24T12:53:13.078Z,10.20
2023-02-24T12:55:47.427Z,10.20
2023-02-24T12:58:20.207Z,10.30
2023-02-24T13:01:02.858Z,10.30
2023-02-24T13:03:46.276Z,10.20
2023-02-24T13:06:20.430Z,10.30
2023-02-24T13:08:56.867Z,10.30
2023-02-24T13:11:38.368Z,10.30
2023-02-24T13:14:15.472Z,10.30
2023-02-24T13:16:44.292Z,10.30
2023-02-24T13:19:30.700Z,10.20
2023-02-24T13:22:06.470Z,10.20
2023-02-24T13:24:35.874Z,10.20
2023-02-24T13:27:20.302Z,10.30
2023-02-24T13:29:51.562Z,10.20
2023-02-24T13:32:30.953Z,10.20
2023-02-24T13:35:02.387Z,10.30
2023-02-24T13:37:34.381Z,10.30
2023-02-24T13:40:23.418Z,10.30
2023-02-24T13:43:00.507Z,10.30
2023-02-24T13:45:30.189Z,10.30
2023-02-24T13:48:23.286Z,10.30
2023-02-24T13:51:09.663Z,10.20
2023-02-24T13:53:58.828Z,10.20
2023-02-24T13:56:38.532Z,10.20
2023-02-24T13:59:24.095Z,10.20
2023-02-24T14:02:02.143Z,10.20
2023-02-24T14:04:32.737Z,10.20
2023-02-24T14:07:05.695Z,10.20
2023-02-24T14:09:37.746Z,10.20
2023-02-24T14:12:13.081Z,10.20
2023-02-24T14:14:43.920Z,10.20
2023-02-24T14:17:22.017Z,10.10
2023-02-24T14:19:50.062Z,10.00
2023-02-24T14:22:22.063Z,10.10
2023-02-24T14:24:50.076Z,10.10
2023-02-24T14:27:25.443Z,10.20
2023-02-24T14:29:54.511Z,10.10
2023-02-24T14:32:25.222Z,10.10
2023-02-24T14:34:54.099Z,10.10
2023-02-24T14:37:26.681Z,10.10
2023-02-24T14:39:57.508Z,10.00
2023-02-24T14:42:27.195Z,10.00
2023-02-24T14:44:57.843Z,10.00
2023-02-24T14:47:28.701Z,10.00
2023-02-24T14:50:20.177Z,10.00
2023-02-24T14:52:54.110Z,10.00
2023-02-24T14:55:27.295Z,10.00
2023-02-24T14:58:00.542Z,10.00
2023-02-24T15:00:33.462Z,10.00
2023-02-24T15:03:11.707Z,10.10
2023-02-24T15:05:44.540Z,10.10
2023-02-24T15:08:30.455Z,10.00
2023-02-24T15:10:59.715Z,10.00
2023-02-24T15:13:36.889Z,10.00
2023-02-24T15:16:13.028Z,10.00
2023-02-24T15:18:42.313Z,9.90
2023-02-24T15:21:24.821Z,9.90
2023-02-24T15:24:02.589Z,9.90
2023-02-24T15:26:32.969Z,9.90
2023-02-24T15:29:03.011Z,9.80
2023-02-24T15:31:31.568Z,9.80
2023-02-24T15:34:03.671Z,9.80
2023-02-24T15:36:37.047Z,9.80
2023-02-24T15:39:10.324Z,9.70
2023-02-24T15:41:43.702Z,9.70
2023-02-24T15:44:27.896Z,9.70
2023-02-24T15:47:04.154Z,9.70
2023-02-24T15:49:34.115Z,9.80
2023-02-24T15:52:04.035Z,9.70
2023-02-24T15:54:37.600Z,9.70
2023-02-24T15:57:07.020Z,9.70
2023-02-24T15:59:37.878Z,9.70
2023-02-24T16:02:13.764Z,9.70
2023-02-24T16:04:41.973Z,9.70
2023-02-24T16:07:18.030Z,9.60
2023-02-24T16:09:51.210Z,9.70
2023-02-24T16:12:21.958Z,9.60
2023-02-24T16:14:56.018Z,9.60
2023-02-24T16:17:33.181Z,9.50
2023-02-24T16:20:09.368Z,9.50
2023-02-24T16:22:37.458Z,9.50
2023-02-24T16:25:08.316Z,9.50
2023-02-24T16:27:38.990Z,9.40
2023-02-24T16:30:08.585Z,9.40
2023-02-24T16:32:37.116Z,9.40
2023-02-24T16:35:11.225Z,9.40
2023-02-24T16:37:40.858Z,9.40
2023-02-24T16:40:23.289Z,9.30
2023-02-24T16:42:53.988Z,9.30
2023-02-24T16:45:23.453Z,9.20
2023-02-24T16:47:53.203Z,9.20
2023-02-24T16:50:24.196Z,9.20
2023-02-24T16:52:52.813Z,9.10
2023-02-24T16:55:22.552Z,9.10
2023-02-24T16:57:50.724Z,9.10
2023-02-24T17:00:24.327Z,9.10
2023-02-24T17:02:57.125Z,9.00
2023-02-24T17:05:28.753Z,9.00
2023-02-24T17:07:58.327Z,8.90
2023-02-24T17:10:27.858Z,9.00
2023-02-24T17:12:56.665Z,8.90
2023-02-24T17:15:26.169Z,8.90
2023-02-24T17:17:54.508Z,8.90
2023-02-24T17:20:25.215Z,8.90
2023-02-24T17:22:54.039Z,8.90
2023-02-24T17:25:25.825Z,8.80
2023-02-24T17:27:58.275Z,8.80
2023-02-24T17:30:29.297Z,8.80
2023-02-24T17:32:58.087Z,8.80
2023-02-24T17:35:27.080Z,8.80
2023-02-24T17:37:56.009Z,8.80
2023-02-24T17:40:24.805Z,8.80
2023-02-24T17:42:52.764Z,8.80
2023-02-24T17:45:22.467Z,8.80
2023-02-24T17:47:52.847Z,8.80
2023-02-24T17:50:21.144Z,8.80
2023-02-24T17:52:49.480Z,8.80
2023-02-24T17:55:17.638Z,8.80
2023-02-24T17:57:48.212Z,8.80
2023-02-24T18:00:18.386Z,8.80
2023-02-24T18:02:47.915Z,8.70
2023-02-24T18:05:16.101Z,8.70
2023-02-24T18:07:45.269Z,8.70
2023-02-24T18:10:13.760Z,8.70
2023-02-24T18:12:42.311Z,8.70
2023-02-24T18:15:11.600Z,8.70
2023-02-24T18:17:40.084Z,8.70
2023-02-24T18:20:12.183Z,8.70
2023-02-24T18:22:40.273Z,8.60
2023-02-24T18:25:09.060Z,8.70
2023-02-24T18:27:37.175Z,8.60
2023-02-24T18:30:07.413Z,8.70
2023-02-24T18:32:35.519Z,8.60
2023-02-24T18:35:03.659Z,8.60
2023-02-24T18:37:37.577Z,8.60
2023-02-24T18:40:07.415Z,8.60
2023-02-24T18:42:36.212Z,8.60
2023-02-24T18:45:05.030Z,8.50
2023-02-24T18:47:33.334Z,8.50
2023-02-24T18:50:01.372Z,8.60
2023-02-24T18:52:29.713Z,8.50
2023-02-24T18:54:59.433Z,8.50
2023-02-24T18:57:27.625Z,8.50
2023-02-24T18:59:56.335Z,8.40
2023-02-24T19:02:24.605Z,8.40
2023-02-24T19:04:54.367Z,8.50
2023-02-24T19:07:24.209Z,8.50
2023-02-24T19:09:53.615Z,8.40
2023-02-24T19:12:24.097Z,8.40
2023-02-24T19:14:52.797Z,8.40
2023-02-24T19:17:21.528Z,8.30
2023-02-24T19:19:50.595Z,8.30
2023-02-24T19:22:20.185Z,8.40
2023-02-24T19:24:48.450Z,8.30
2023-02-24T19:27:16.445Z,8.20
2023-02-24T19:29:46.448Z,8.20
2023-02-24T19:32:14.534Z,8.10
2023-02-24T19:34:42.961Z,8.10
2023-02-24T19:37:10.849Z,8.10
2023-02-24T19:39:38.782Z,8.10
2023-02-24T19:42:07.251Z,8.10
2023-02-24T19:44:36.349Z,8.10
2023-02-24T19:47:07.378Z,8.10
2023-02-24T19:49:39.684Z,8.10
2023-02-24T19:52:07.714Z,8.10
2023-02-24T19:54:35.725Z,7.90
2023-02-24T19:57:04.085Z,8.00
2023-02-24T19:59:32.631Z,7.90
2023-02-24T20:02:03.113Z,8.00
2023-02-24T20:04:32.898Z,7.90
2023-02-24T20:07:00.878Z,7.90
2023-02-24T20:09:29.881Z,7.80
2023-02-24T20:12:00.810Z,7.80
2023-02-24T20:14:32.807Z,7.70
2023-02-24T20:17:02.830Z,7.80
2023-02-24T20:19:34.067Z,7.80
2023-02-24T20:22:04.894Z,7.70
2023-02-24T20:24:34.994Z,7.70
2023-02-24T20:27:08.316Z,7.70
2023-02-24T20:29:36.370Z,7.70
2023-02-24T20:32:05.910Z,7.70
2023-02-24T20:34:38.449Z,7.70
2023-02-24T20:37:07.211Z,7.60
2023-02-24T20:39:36.469Z,7.60
2023-02-24T20:42:05.830Z,7.50
2023-02-24T20:44:34.839Z,7.60
2023-02-24T20:47:03.030Z,7.50
2023-02-24T20:49:31.189Z,7.50
2023-02-24T20:52:00.649Z,7.50
2023-02-24T20:54:29.168Z,7.50
2023-02-24T20:56:57.893Z,7.50
2023-02-24T20:59:27.050Z,7.50
2023-02-24T21:01:56.159Z,7.40
2023-02-24T21:04:24.784Z,7.40
2023-02-24T21:06:54.180Z,7.40
2023-02-24T21:09:24.114Z,7.50
2023-02-24T21:11:53.096Z,7.40
2023-02-24T21:14:22.956Z,7.30
2023-02-24T21:16:51.756Z,7.30
2023-02-24T21:19:20.217Z,7.30
2023-02-24T21:21:48.914Z,7.30
2023-02-24T21:24:16.964Z,7.30
2023-02-24T21:26:50.401Z,7.30
2023-02-24T21:29:20.685Z,7.20
2023-02-24T21:31:49.795Z,7.20
2023-02-24T21:34:19.541Z,7.10
2023-02-24T21:36:49.406Z,7.10
2023-02-24T21:39:21.225Z,7.10
2023-02-24T21:41:50.625Z,7.10
2023-02-24T21:44:21.214Z,7.10
2023-02-24T21:46:49.744Z,7.10
2023-02-24T21:49:19.053Z,7.00
2023-02-24T21:52:11.598Z,7.10
2023-02-24T21:54:39.784Z,7.10
2023-02-24T21:57:09.535Z,7.00
2023-02-24T21:59:37.741Z,6.60
2023-02-24T22:02:06.339Z,6.50
2023-02-24T22:04:34.457Z,6.40
2023-02-24T22:07:02.442Z,6.20
2023-02-24T22:09:31.065Z,6.20
2023-02-24T22:11:59.918Z,6.10
2023-02-24T22:14:30.461Z,6.00
2023-02-24T22:16:59.326Z,6.00
2023-02-24T22:19:27.578Z,6.00
2023-02-24T22:21:59.953Z,5.90
2023-02-24T22:24:27.985Z,5.90
2023-02-24T22:26:55.922Z,6.00
2023-02-24T22:29:26.404Z,6.00
2023-02-24T22:31:56.608Z,6.00
2023-02-24T22:34:25.365Z,6.00
2023-02-24T22:36:54.380Z,5.90
2023-02-24T22:39:23.357Z,5.90
2023-02-24T22:41:52.520Z,5.90
2023-02-24T22:44:21.137Z,5.90
2023-02-24T22:46:51.345Z,5.90
2023-02-24T22:49:21.605Z,5.90
2023-02-24T22:51:49.567Z,5.90
2023-02-24T22:54:19.027Z,5.90
2023-02-24T22:56:47.381Z,5.80
2023-02-24T22:59:16.888Z,5.90
2023-02-24T23:01:44.850Z,5.90
2023-02-24T23:04:17.225Z,5.80
2023-02-24T23:06:48.194Z,5.80
2023-02-24T23:09:19.694Z,5.80
2023-02-24T23:11:48.182Z,5.80
2023-02-24T23:14:16.800Z,5.60
2023-02-24T23:16:47.269Z,5.60
2023-02-24T23:19:20.789Z,5.50
2023-02-24T23:21:52.089Z,5.40
2023-02-24T23:24:22.015Z,5.30
2023-02-24T23:26:53.870Z,5.20
2023-02-24T23:29:25.938Z,5.30
2023-02-24T23:31:54.456Z,5.20
2023-02-24T23:34:24.589Z,5.10
2023-02-24T23:36:54.615Z,5.10
2023-02-24T23:39:23.917Z,5.20
2023-02-24T23:41:56.721Z,5.00
2023-02-24T23:44:25.629Z,5.10
2023-02-24T23:46:54.320Z,5.00
2023-02-24T23:49:23.191Z,5.00
2023-02-24T23:51:51.318Z,5.00
2023-02-24T23:54:20.878Z,5.10
2023-02-24T23:56:49.678Z,5.10
2023-02-24T23:59:18.189Z,5.00
